sensor_id;sensor_type;location;lat;lon;timestamp;P1;durP1;ratioP1;P2;durP2;ratioP2
13404;SDS011;6773;51.192;7.024;2023-02-11T00:00:14;36.57;;;21.63;;
13404;SDS011;6773;51.192;7.024;2023-02-11T00:02:41;35.43;;;20.93;;
13404;SDS011;6773;51.192;7.024;2023-02-11T00:05:07;39.57;;;21.47;;
13404;SDS011;6773;51.192;7.024;2023-02-11T00:07:32;35.83;;;19.53;;
13404;SDS011;6773;51.192;7.024;2023-02-11T00:09:59;31.73;;;19.70;;
13404;SDS011;6773;51.192;7.024;2023-02-11T00:12:26;37.00;;;20.80;;
13404;SDS011;6773;51.192;7.024;2023-02-11T00:14:52;37.67;;;21.17;;
13404;SDS011;6773;51.192;7.024;2023-02-11T00:17:18;31.10;;;19.30;;
13404;SDS011;6773;51.192;7.024;2023-02-11T00:19:47;37.23;;;20.23;;
13404;SDS011;6773;51.192;7.024;2023-02-11T00:22:14;38.63;;;20.63;;
13404;SDS011;6773;51.192;7.024;2023-02-11T00:24:40;31.90;;;19.23;;
13404;SDS011;6773;51.192;7.024;2023-02-11T00:27:05;34.90;;;19.30;;
13404;SDS011;6773;51.192;7.024;2023-02-11T00:29:31;33.43;;;20.17;;
13404;SDS011;6773;51.192;7.024;2023-02-11T00:31:57;30.33;;;19.97;;
13404;SDS011;6773;51.192;7.024;2023-02-11T00:34:22;37.40;;;21.27;;
13404;SDS011;6773;51.192;7.024;2023-02-11T00:36:48;32.00;;;19.73;;
13404;SDS011;6773;51.192;7.024;2023-02-11T00:39:14;38.80;;;20.73;;
13404;SDS011;6773;51.192;7.024;2023-02-11T00:41:40;26.77;;;19.07;;
13404;SDS011;6773;51.192;7.024;2023-02-11T00:44:06;31.33;;;18.33;;
13404;SDS011;6773;51.192;7.024;2023-02-11T00:46:31;33.67;;;20.37;;
13404;SDS011;6773;51.192;7.024;2023-02-11T00:48:57;31.80;;;20.87;;
13404;SDS011;6773;51.192;7.024;2023-02-11T00:51:24;33.70;;;20.13;;
13404;SDS011;6773;51.192;7.024;2023-02-11T00:53:51;32.07;;;18.97;;
13404;SDS011;6773;51.192;7.024;2023-02-11T00:56:17;31.87;;;18.53;;
13404;SDS011;6773;51.192;7.024;2023-02-11T00:58:43;29.90;;;18.37;;
13404;SDS011;6773;51.192;7.024;2023-02-11T01:01:09;28.53;;;18.03;;
13404;SDS011;6773;51.192;7.024;2023-02-11T01:03:34;32.37;;;18.77;;
13404;SDS011;6773;51.192;7.024;2023-02-11T01:06:00;31.57;;;19.80;;
13404;SDS011;6773;51.192;7.024;2023-02-11T01:08:26;29.30;;;19.07;;
13404;SDS011;6773;51.192;7.024;2023-02-11T01:10:53;28.10;;;17.47;;
13404;SDS011;6773;51.192;7.024;2023-02-11T01:13:23;29.37;;;18.53;;
13404;SDS011;6773;51.192;7.024;2023-02-11T01:15:50;32.03;;;17.07;;
13404;SDS011;6773;51.192;7.024;2023-02-11T01:18:16;26.47;;;18.73;;
13404;SDS011;6773;51.192;7.024;2023-02-11T01:20:41;30.97;;;17.63;;
13404;SDS011;6773;51.192;7.024;2023-02-11T01:23:07;27.07;;;17.83;;
13404;SDS011;6773;51.192;7.024;2023-02-11T01:25:33;24.13;;;16.80;;
13404;SDS011;6773;51.192;7.024;2023-02-11T01:27:59;27.63;;;18.03;;
13404;SDS011;6773;51.192;7.024;2023-02-11T01:30:24;25.67;;;17.40;;
13404;SDS011;6773;51.192;7.024;2023-02-11T01:32:50;27.30;;;17.40;;
13404;SDS011;6773;51.192;7.024;2023-02-11T01:35:16;30.00;;;17.43;;
13404;SDS011;6773;51.192;7.024;2023-02-11T01:37:42;30.90;;;17.53;;
13404;SDS011;6773;51.192;7.024;2023-02-11T01:40:11;29.40;;;17.37;;
13404;SDS011;6773;51.192;7.024;2023-02-11T01:42:38;29.60;;;17.90;;
13404;SDS011;6773;51.192;7.024;2023-02-11T01:48:07;31.00;;;17.97;;
13404;SDS011;6773;51.192;7.024;2023-02-11T01:50:37;29.70;;;18.87;;
13404;SDS011;6773;51.192;7.024;2023-02-11T01:53:05;25.53;;;16.83;;
13404;SDS011;6773;51.192;7.024;2023-02-11T01:55:51;30.67;;;17.57;;
13404;SDS011;6773;51.192;7.024;2023-02-11T01:58:36;34.33;;;18.47;;
13404;SDS011;6773;51.192;7.024;2023-02-11T02:01:05;25.93;;;17.33;;
13404;SDS011;6773;51.192;7.024;2023-02-11T02:03:32;27.77;;;16.93;;
13404;SDS011;6773;51.192;7.024;2023-02-11T02:06:11;29.77;;;18.50;;
13404;SDS011;6773;51.192;7.024;2023-02-11T02:08:50;34.87;;;18.97;;
13404;SDS011;6773;51.192;7.024;2023-02-11T02:11:21;28.53;;;17.87;;
13404;SDS011;6773;51.192;7.024;2023-02-11T02:13:48;35.70;;;20.60;;
13404;SDS011;6773;51.192;7.024;2023-02-11T02:16:14;29.70;;;18.67;;
13404;SDS011;6773;51.192;7.024;2023-02-11T02:29:30;31.17;;;17.80;;
13404;SDS011;6773;51.192;7.024;2023-02-11T02:40:16;33.87;;;20.07;;
13404;SDS011;6773;51.192;7.024;2023-02-11T02:42:49;34.80;;;20.67;;
13404;SDS011;6773;51.192;7.024;2023-02-11T02:45:16;33.97;;;19.27;;
13404;SDS011;6773;51.192;7.024;2023-02-11T02:47:43;31.50;;;19.50;;
13404;SDS011;6773;51.192;7.024;2023-02-11T02:50:12;34.27;;;20.33;;
13404;SDS011;6773;51.192;7.024;2023-02-11T03:05:56;36.73;;;20.97;;
13404;SDS011;6773;51.192;7.024;2023-02-11T03:11:10;34.70;;;20.70;;
13404;SDS011;6773;51.192;7.024;2023-02-11T03:13:39;33.63;;;20.23;;
13404;SDS011;6773;51.192;7.024;2023-02-11T03:16:11;36.77;;;20.90;;
13404;SDS011;6773;51.192;7.024;2023-02-11T03:18:40;32.33;;;19.60;;
13404;SDS011;6773;51.192;7.024;2023-02-11T03:21:08;33.17;;;17.37;;
13404;SDS011;6773;51.192;7.024;2023-02-11T03:23:36;33.37;;;19.00;;
13404;SDS011;6773;51.192;7.024;2023-02-11T03:26:22;36.00;;;18.53;;
13404;SDS011;6773;51.192;7.024;2023-02-11T03:39:35;30.00;;;18.63;;
13404;SDS011;6773;51.192;7.024;2023-02-11T03:42:03;33.17;;;19.57;;
13404;SDS011;6773;51.192;7.024;2023-02-11T03:44:33;35.37;;;19.70;;
13404;SDS011;6773;51.192;7.024;2023-02-11T03:47:06;28.90;;;18.17;;
13404;SDS011;6773;51.192;7.024;2023-02-11T03:49:34;33.57;;;18.17;;
13404;SDS011;6773;51.192;7.024;2023-02-11T03:52:03;32.13;;;18.13;;
13404;SDS011;6773;51.192;7.024;2023-02-11T03:54:31;37.00;;;21.60;;
13404;SDS011;6773;51.192;7.024;2023-02-11T03:56:59;34.90;;;19.37;;
13404;SDS011;6773;51.192;7.024;2023-02-11T03:59:26;37.33;;;20.80;;
13404;SDS011;6773;51.192;7.024;2023-02-11T04:01:52;35.63;;;20.30;;
13404;SDS011;6773;51.192;7.024;2023-02-11T04:04:18;36.30;;;19.70;;
13404;SDS011;6773;51.192;7.024;2023-02-11T04:06:44;36.37;;;20.57;;
13404;SDS011;6773;51.192;7.024;2023-02-11T04:09:09;36.60;;;20.70;;
13404;SDS011;6773;51.192;7.024;2023-02-11T04:11:35;36.20;;;20.97;;
13404;SDS011;6773;51.192;7.024;2023-02-11T04:14:01;37.63;;;20.50;;
13404;SDS011;6773;51.192;7.024;2023-02-11T04:16:27;42.13;;;21.33;;
13404;SDS011;6773;51.192;7.024;2023-02-11T04:18:54;45.70;;;22.47;;
13404;SDS011;6773;51.192;7.024;2023-02-11T04:21:20;38.43;;;21.57;;
13404;SDS011;6773;51.192;7.024;2023-02-11T04:23:47;38.03;;;20.97;;
13404;SDS011;6773;51.192;7.024;2023-02-11T04:26:12;38.60;;;22.97;;
13404;SDS011;6773;51.192;7.024;2023-02-11T04:28:38;36.90;;;21.00;;
13404;SDS011;6773;51.192;7.024;2023-02-11T04:31:04;39.37;;;21.70;;
13404;SDS011;6773;51.192;7.024;2023-02-11T04:33:29;36.83;;;22.00;;
13404;SDS011;6773;51.192;7.024;2023-02-11T04:35:55;48.70;;;22.67;;
13404;SDS011;6773;51.192;7.024;2023-02-11T04:38:21;41.40;;;22.67;;
13404;SDS011;6773;51.192;7.024;2023-02-11T04:40:48;39.63;;;22.27;;
13404;SDS011;6773;51.192;7.024;2023-02-11T04:43:14;41.90;;;22.77;;
13404;SDS011;6773;51.192;7.024;2023-02-11T04:45:39;46.60;;;23.57;;
13404;SDS011;6773;51.192;7.024;2023-02-11T04:48:05;45.80;;;24.30;;
13404;SDS011;6773;51.192;7.024;2023-02-11T04:50:30;44.13;;;21.67;;
13404;SDS011;6773;51.192;7.024;2023-02-11T04:52:56;44.17;;;24.07;;
13404;SDS011;6773;51.192;7.024;2023-02-11T04:55:22;45.30;;;24.10;;
13404;SDS011;6773;51.192;7.024;2023-02-11T04:57:48;48.03;;;23.67;;
13404;SDS011;6773;51.192;7.024;2023-02-11T05:00:14;43.83;;;23.83;;
13404;SDS011;6773;51.192;7.024;2023-02-11T05:02:40;40.43;;;23.87;;
13404;SDS011;6773;51.192;7.024;2023-02-11T05:05:06;40.70;;;23.50;;
13404;SDS011;6773;51.192;7.024;2023-02-11T05:07:32;48.10;;;24.27;;
13404;SDS011;6773;51.192;7.024;2023-02-11T05:09:58;39.27;;;21.77;;
13404;SDS011;6773;51.192;7.024;2023-02-11T05:12:23;47.53;;;23.67;;
13404;SDS011;6773;51.192;7.024;2023-02-11T05:14:49;41.63;;;22.90;;
13404;SDS011;6773;51.192;7.024;2023-02-11T05:17:15;41.67;;;22.67;;
13404;SDS011;6773;51.192;7.024;2023-02-11T05:19:41;41.67;;;23.27;;
13404;SDS011;6773;51.192;7.024;2023-02-11T05:22:07;38.87;;;22.87;;
13404;SDS011;6773;51.192;7.024;2023-02-11T05:24:33;39.60;;;21.50;;
13404;SDS011;6773;51.192;7.024;2023-02-11T05:26:59;54.50;;;23.13;;
13404;SDS011;6773;51.192;7.024;2023-02-11T05:29:25;55.30;;;24.10;;
13404;SDS011;6773;51.192;7.024;2023-02-11T05:31:51;41.33;;;22.17;;
13404;SDS011;6773;51.192;7.024;2023-02-11T05:34:16;47.57;;;22.80;;
13404;SDS011;6773;51.192;7.024;2023-02-11T05:36:42;48.10;;;25.97;;
13404;SDS011;6773;51.192;7.024;2023-02-11T05:39:08;53.67;;;23.90;;
13404;SDS011;6773;51.192;7.024;2023-02-11T05:41:34;59.97;;;25.43;;
13404;SDS011;6773;51.192;7.024;2023-02-11T05:44:00;58.57;;;24.83;;
13404;SDS011;6773;51.192;7.024;2023-02-11T05:46:25;50.70;;;26.20;;
13404;SDS011;6773;51.192;7.024;2023-02-11T05:48:51;46.40;;;22.33;;
13404;SDS011;6773;51.192;7.024;2023-02-11T05:51:16;57.83;;;27.80;;
13404;SDS011;6773;51.192;7.024;2023-02-11T05:53:42;59.07;;;26.50;;
13404;SDS011;6773;51.192;7.024;2023-02-11T05:56:08;54.33;;;24.43;;
13404;SDS011;6773;51.192;7.024;2023-02-11T05:58:34;56.73;;;26.63;;
13404;SDS011;6773;51.192;7.024;2023-02-11T06:01:00;70.10;;;28.20;;
13404;SDS011;6773;51.192;7.024;2023-02-11T06:03:25;55.43;;;26.63;;
13404;SDS011;6773;51.192;7.024;2023-02-11T06:05:51;63.30;;;29.27;;
13404;SDS011;6773;51.192;7.024;2023-02-11T06:08:17;65.10;;;28.93;;
13404;SDS011;6773;51.192;7.024;2023-02-11T06:10:43;58.13;;;29.17;;
13404;SDS011;6773;51.192;7.024;2023-02-11T06:13:09;65.00;;;28.77;;
13404;SDS011;6773;51.192;7.024;2023-02-11T06:15:35;64.17;;;27.10;;
13404;SDS011;6773;51.192;7.024;2023-02-11T06:18:00;57.03;;;29.00;;
13404;SDS011;6773;51.192;7.024;2023-02-11T06:20:26;67.37;;;29.07;;
13404;SDS011;6773;51.192;7.024;2023-02-11T06:22:52;72.17;;;30.17;;
13404;SDS011;6773;51.192;7.024;2023-02-11T06:25:18;69.60;;;30.57;;
13404;SDS011;6773;51.192;7.024;2023-02-11T06:27:43;66.53;;;31.83;;
13404;SDS011;6773;51.192;7.024;2023-02-11T06:30:09;74.60;;;30.00;;
13404;SDS011;6773;51.192;7.024;2023-02-11T06:32:35;72.77;;;31.97;;
13404;SDS011;6773;51.192;7.024;2023-02-11T06:35:01;66.73;;;30.33;;
13404;SDS011;6773;51.192;7.024;2023-02-11T06:37:27;70.47;;;29.87;;
13404;SDS011;6773;51.192;7.024;2023-02-11T06:39:53;62.73;;;29.87;;
13404;SDS011;6773;51.192;7.024;2023-02-11T06:42:18;64.20;;;29.27;;
13404;SDS011;6773;51.192;7.024;2023-02-11T06:44:44;79.93;;;31.03;;
13404;SDS011;6773;51.192;7.024;2023-02-11T06:47:10;77.20;;;31.47;;
13404;SDS011;6773;51.192;7.024;2023-02-11T06:49:36;79.87;;;29.67;;
13404;SDS011;6773;51.192;7.024;2023-02-11T06:52:02;105.20;;;31.87;;
13404;SDS011;6773;51.192;7.024;2023-02-11T06:54:28;88.63;;;32.80;;
13404;SDS011;6773;51.192;7.024;2023-02-11T06:56:53;87.57;;;33.93;;
13404;SDS011;6773;51.192;7.024;2023-02-11T06:59:19;92.73;;;33.90;;
13404;SDS011;6773;51.192;7.024;2023-02-11T07:01:45;92.23;;;33.33;;
13404;SDS011;6773;51.192;7.024;2023-02-11T07:04:11;121.13;;;35.50;;
13404;SDS011;6773;51.192;7.024;2023-02-11T07:06:38;86.17;;;35.47;;
13404;SDS011;6773;51.192;7.024;2023-02-11T07:09:05;88.07;;;35.07;;
13404;SDS011;6773;51.192;7.024;2023-02-11T07:11:31;110.63;;;37.30;;
13404;SDS011;6773;51.192;7.024;2023-02-11T07:14:01;119.73;;;38.03;;
13404;SDS011;6773;51.192;7.024;2023-02-11T07:16:29;100.50;;;36.63;;
13404;SDS011;6773;51.192;7.024;2023-02-11T07:18:55;101.67;;;37.20;;
13404;SDS011;6773;51.192;7.024;2023-02-11T07:21:21;134.33;;;38.33;;
13404;SDS011;6773;51.192;7.024;2023-02-11T07:23:48;108.97;;;38.43;;
13404;SDS011;6773;51.192;7.024;2023-02-11T07:26:15;132.13;;;39.40;;
13404;SDS011;6773;51.192;7.024;2023-02-11T07:28:43;123.57;;;38.03;;
13404;SDS011;6773;51.192;7.024;2023-02-11T07:33:39;121.60;;;37.87;;
13404;SDS011;6773;51.192;7.024;2023-02-11T07:36:05;120.50;;;39.40;;
13404;SDS011;6773;51.192;7.024;2023-02-11T07:38:33;133.73;;;38.03;;
13404;SDS011;6773;51.192;7.024;2023-02-11T07:40:59;111.90;;;39.20;;
13404;SDS011;6773;51.192;7.024;2023-02-11T07:43:26;178.30;;;40.30;;
13404;SDS011;6773;51.192;7.024;2023-02-11T07:45:52;199.17;;;41.73;;
13404;SDS011;6773;51.192;7.024;2023-02-11T07:48:18;147.03;;;40.63;;
13404;SDS011;6773;51.192;7.024;2023-02-11T07:50:44;130.57;;;41.33;;
13404;SDS011;6773;51.192;7.024;2023-02-11T07:53:10;128.13;;;40.77;;
13404;SDS011;6773;51.192;7.024;2023-02-11T07:55:35;117.80;;;40.83;;
13404;SDS011;6773;51.192;7.024;2023-02-11T07:58:01;157.27;;;42.83;;
13404;SDS011;6773;51.192;7.024;2023-02-11T08:00:27;134.27;;;38.87;;
13404;SDS011;6773;51.192;7.024;2023-02-11T08:02:53;130.67;;;41.20;;
13404;SDS011;6773;51.192;7.024;2023-02-11T08:05:21;199.10;;;41.23;;
13404;SDS011;6773;51.192;7.024;2023-02-11T08:07:49;252.30;;;45.23;;
13404;SDS011;6773;51.192;7.024;2023-02-11T08:10:18;132.70;;;37.77;;
13404;SDS011;6773;51.192;7.024;2023-02-11T08:12:44;141.57;;;41.47;;
13404;SDS011;6773;51.192;7.024;2023-02-11T08:15:10;147.00;;;42.00;;
13404;SDS011;6773;51.192;7.024;2023-02-11T08:17:36;199.67;;;41.80;;
13404;SDS011;6773;51.192;7.024;2023-02-11T08:20:02;179.83;;;43.67;;
13404;SDS011;6773;51.192;7.024;2023-02-11T08:22:32;272.67;;;49.07;;
13404;SDS011;6773;51.192;7.024;2023-02-11T08:24:59;145.40;;;43.30;;
13404;SDS011;6773;51.192;7.024;2023-02-11T08:27:25;241.43;;;45.73;;
13404;SDS011;6773;51.192;7.024;2023-02-11T08:29:54;197.17;;;45.17;;
13404;SDS011;6773;51.192;7.024;2023-02-11T08:32:20;269.90;;;48.03;;
13404;SDS011;6773;51.192;7.024;2023-02-11T08:34:49;267.93;;;47.67;;
13404;SDS011;6773;51.192;7.024;2023-02-11T08:37:16;389.57;;;53.27;;
13404;SDS011;6773;51.192;7.024;2023-02-11T08:39:41;331.50;;;51.50;;
13404;SDS011;6773;51.192;7.024;2023-02-11T08:42:07;202.33;;;41.10;;
13404;SDS011;6773;51.192;7.024;2023-02-11T08:44:32;177.87;;;43.80;;
13404;SDS011;6773;51.192;7.024;2023-02-11T08:46:58;186.03;;;43.07;;
13404;SDS011;6773;51.192;7.024;2023-02-11T08:49:24;334.23;;;52.13;;
13404;SDS011;6773;51.192;7.024;2023-02-11T08:51:50;182.43;;;43.13;;
13404;SDS011;6773;51.192;7.024;2023-02-11T08:54:16;189.23;;;44.17;;
13404;SDS011;6773;51.192;7.024;2023-02-11T08:56:42;180.40;;;42.20;;
13404;SDS011;6773;51.192;7.024;2023-02-11T08:59:10;278.33;;;43.10;;
13404;SDS011;6773;51.192;7.024;2023-02-11T09:01:38;248.83;;;43.43;;
13404;SDS011;6773;51.192;7.024;2023-02-11T09:04:04;387.43;;;50.17;;
13404;SDS011;6773;51.192;7.024;2023-02-11T09:06:30;138.63;;;39.20;;
13404;SDS011;6773;51.192;7.024;2023-02-11T09:08:56;433.00;;;52.40;;
13404;SDS011;6773;51.192;7.024;2023-02-11T09:11:27;323.27;;;47.17;;
13404;SDS011;6773;51.192;7.024;2023-02-11T09:13:57;201.20;;;44.07;;
13404;SDS011;6773;51.192;7.024;2023-02-11T09:16:25;380.37;;;48.20;;
13404;SDS011;6773;51.192;7.024;2023-02-11T09:18:56;231.40;;;42.90;;
13404;SDS011;6773;51.192;7.024;2023-02-11T09:21:23;348.80;;;44.70;;
13404;SDS011;6773;51.192;7.024;2023-02-11T09:23:49;240.60;;;41.90;;
13404;SDS011;6773;51.192;7.024;2023-02-11T09:26:16;243.67;;;45.43;;
13404;SDS011;6773;51.192;7.024;2023-02-11T09:28:42;323.77;;;44.97;;
13404;SDS011;6773;51.192;7.024;2023-02-11T09:31:09;283.27;;;45.90;;
13404;SDS011;6773;51.192;7.024;2023-02-11T09:33:37;230.10;;;44.37;;
13404;SDS011;6773;51.192;7.024;2023-02-11T09:36:06;490.60;;;54.13;;
13404;SDS011;6773;51.192;7.024;2023-02-11T09:38:32;285.93;;;44.70;;
13404;SDS011;6773;51.192;7.024;2023-02-11T09:40:58;275.47;;;46.23;;
13404;SDS011;6773;51.192;7.024;2023-02-11T09:43:35;489.80;;;56.73;;
13404;SDS011;6773;51.192;7.024;2023-02-11T09:46:08;439.63;;;53.57;;
13404;SDS011;6773;51.192;7.024;2023-02-11T09:48:39;648.83;;;64.50;;
13404;SDS011;6773;51.192;7.024;2023-02-11T09:51:11;393.70;;;47.30;;
13404;SDS011;6773;51.192;7.024;2023-02-11T09:54:05;408.27;;;48.83;;
13404;SDS011;6773;51.192;7.024;2023-02-11T09:56:37;278.43;;;45.10;;
13404;SDS011;6773;51.192;7.024;2023-02-11T09:59:03;255.20;;;43.47;;
13404;SDS011;6773;51.192;7.024;2023-02-11T10:01:37;252.40;;;42.37;;
13404;SDS011;6773;51.192;7.024;2023-02-11T10:23:22;261.60;;;44.50;;
13404;SDS011;6773;51.192;7.024;2023-02-11T10:25:51;287.90;;;46.00;;
13404;SDS011;6773;51.192;7.024;2023-02-11T10:28:22;334.83;;;49.10;;
13404;SDS011;6773;51.192;7.024;2023-02-11T10:33:33;261.73;;;43.90;;
13404;SDS011;6773;51.192;7.024;2023-02-11T10:36:08;340.37;;;49.13;;
13404;SDS011;6773;51.192;7.024;2023-02-11T10:38:35;179.47;;;39.30;;
13404;SDS011;6773;51.192;7.024;2023-02-11T10:41:01;254.33;;;46.97;;
13404;SDS011;6773;51.192;7.024;2023-02-11T10:43:27;392.67;;;53.87;;
13404;SDS011;6773;51.192;7.024;2023-02-11T10:45:56;221.73;;;45.20;;
13404;SDS011;6773;51.192;7.024;2023-02-11T10:51:22;209.17;;;45.07;;
13404;SDS011;6773;51.192;7.024;2023-02-11T10:56:28;276.07;;;48.30;;
13404;SDS011;6773;51.192;7.024;2023-02-11T10:59:00;321.23;;;49.33;;
13404;SDS011;6773;51.192;7.024;2023-02-11T11:01:49;332.57;;;50.47;;
13404;SDS011;6773;51.192;7.024;2023-02-11T11:06:53;213.80;;;48.07;;
13404;SDS011;6773;51.192;7.024;2023-02-11T11:09:29;221.60;;;44.57;;
13404;SDS011;6773;51.192;7.024;2023-02-11T11:12:17;224.67;;;47.23;;
13404;SDS011;6773;51.192;7.024;2023-02-11T11:15:21;302.80;;;49.73;;
13404;SDS011;6773;51.192;7.024;2023-02-11T11:20:43;232.43;;;45.67;;
13404;SDS011;6773;51.192;7.024;2023-02-11T11:23:37;199.10;;;43.97;;
13404;SDS011;6773;51.192;7.024;2023-02-11T11:26:11;237.93;;;44.73;;
13404;SDS011;6773;51.192;7.024;2023-02-11T11:28:40;201.17;;;44.83;;
13404;SDS011;6773;51.192;7.024;2023-02-11T11:31:50;171.43;;;41.83;;
13404;SDS011;6773;51.192;7.024;2023-02-11T11:34:19;202.30;;;46.60;;
13404;SDS011;6773;51.192;7.024;2023-02-11T11:36:46;187.60;;;38.33;;
13404;SDS011;6773;51.192;7.024;2023-02-11T11:39:26;183.63;;;43.00;;
13404;SDS011;6773;51.192;7.024;2023-02-11T11:41:56;183.33;;;42.57;;
13404;SDS011;6773;51.192;7.024;2023-02-11T11:44:25;182.27;;;41.23;;
13404;SDS011;6773;51.192;7.024;2023-02-11T11:47:16;200.10;;;44.03;;
13404;SDS011;6773;51.192;7.024;2023-02-11T11:52:45;179.57;;;40.33;;
13404;SDS011;6773;51.192;7.024;2023-02-11T11:55:25;182.27;;;42.90;;
13404;SDS011;6773;51.192;7.024;2023-02-11T11:57:54;195.30;;;44.77;;
13404;SDS011;6773;51.192;7.024;2023-02-11T12:00:23;172.73;;;42.10;;
13404;SDS011;6773;51.192;7.024;2023-02-11T12:03:25;158.30;;;40.43;;
13404;SDS011;6773;51.192;7.024;2023-02-11T12:11:32;174.23;;;42.93;;
13404;SDS011;6773;51.192;7.024;2023-02-11T12:27:53;180.90;;;42.83;;
13404;SDS011;6773;51.192;7.024;2023-02-11T12:30:43;177.77;;;42.63;;
13404;SDS011;6773;51.192;7.024;2023-02-11T12:38:52;167.87;;;41.97;;
13404;SDS011;6773;51.192;7.024;2023-02-11T12:41:43;200.97;;;43.80;;
13404;SDS011;6773;51.192;7.024;2023-02-11T12:47:44;177.40;;;43.33;;
13404;SDS011;6773;51.192;7.024;2023-02-11T12:53:10;198.87;;;45.30;;
13404;SDS011;6773;51.192;7.024;2023-02-11T12:55:44;169.50;;;42.10;;
13404;SDS011;6773;51.192;7.024;2023-02-11T12:58:14;132.00;;;37.73;;
13404;SDS011;6773;51.192;7.024;2023-02-11T13:00:49;163.27;;;41.43;;
13404;SDS011;6773;51.192;7.024;2023-02-11T13:06:19;173.67;;;42.83;;
13404;SDS011;6773;51.192;7.024;2023-02-11T13:08:50;158.27;;;41.53;;
13404;SDS011;6773;51.192;7.024;2023-02-11T13:11:23;162.87;;;40.43;;
13404;SDS011;6773;51.192;7.024;2023-02-11T13:16:40;165.30;;;43.03;;
13404;SDS011;6773;51.192;7.024;2023-02-11T13:19:28;163.60;;;43.67;;
13404;SDS011;6773;51.192;7.024;2023-02-11T13:24:43;157.03;;;40.70;;
13404;SDS011;6773;51.192;7.024;2023-02-11T13:27:28;154.30;;;40.93;;
13404;SDS011;6773;51.192;7.024;2023-02-11T13:37:59;147.43;;;40.00;;
13404;SDS011;6773;51.192;7.024;2023-02-11T13:40:40;172.83;;;42.40;;
13404;SDS011;6773;51.192;7.024;2023-02-11T13:43:23;149.60;;;40.40;;
13404;SDS011;6773;51.192;7.024;2023-02-11T13:45:52;145.77;;;41.60;;
13404;SDS011;6773;51.192;7.024;2023-02-11T13:48:35;153.47;;;40.57;;
13404;SDS011;6773;51.192;7.024;2023-02-11T13:53:29;162.27;;;42.33;;
13404;SDS011;6773;51.192;7.024;2023-02-11T13:56:08;147.00;;;40.97;;
13404;SDS011;6773;51.192;7.024;2023-02-11T13:58:47;145.20;;;39.60;;
13404;SDS011;6773;51.192;7.024;2023-02-11T14:04:36;141.30;;;36.50;;
13404;SDS011;6773;51.192;7.024;2023-02-11T14:11:02;142.00;;;38.57;;
13404;SDS011;6773;51.192;7.024;2023-02-11T14:16:17;138.07;;;41.40;;
13404;SDS011;6773;51.192;7.024;2023-02-11T14:23:45;150.50;;;42.73;;
13404;SDS011;6773;51.192;7.024;2023-02-11T14:29:09;142.03;;;42.10;;
13404;SDS011;6773;51.192;7.024;2023-02-11T14:40:24;138.23;;;40.87;;
13404;SDS011;6773;51.192;7.024;2023-02-11T14:42:53;148.17;;;41.97;;
13404;SDS011;6773;51.192;7.024;2023-02-11T14:45:24;134.03;;;42.13;;
13404;SDS011;6773;51.192;7.024;2023-02-11T14:47:54;136.37;;;39.97;;
13404;SDS011;6773;51.192;7.024;2023-02-11T14:50:30;129.37;;;41.40;;
13404;SDS011;6773;51.192;7.024;2023-02-11T14:53:02;115.83;;;37.13;;
13404;SDS011;6773;51.192;7.024;2023-02-11T14:55:34;135.53;;;41.37;;
13404;SDS011;6773;51.192;7.024;2023-02-11T14:58:04;126.77;;;39.63;;
13404;SDS011;6773;51.192;7.024;2023-02-11T15:00:30;116.97;;;41.57;;
13404;SDS011;6773;51.192;7.024;2023-02-11T15:02:56;122.13;;;38.73;;
13404;SDS011;6773;51.192;7.024;2023-02-11T15:05:23;121.17;;;41.13;;
13404;SDS011;6773;51.192;7.024;2023-02-11T15:08:11;108.23;;;38.27;;
13404;SDS011;6773;51.192;7.024;2023-02-11T15:10:42;121.70;;;40.67;;
13404;SDS011;6773;51.192;7.024;2023-02-11T15:13:13;130.43;;;39.90;;
13404;SDS011;6773;51.192;7.024;2023-02-11T15:15:44;116.70;;;41.17;;
13404;SDS011;6773;51.192;7.024;2023-02-11T15:18:15;110.83;;;39.40;;
13404;SDS011;6773;51.192;7.024;2023-02-11T15:20:46;117.70;;;37.90;;
13404;SDS011;6773;51.192;7.024;2023-02-11T15:23:21;125.90;;;39.30;;
13404;SDS011;6773;51.192;7.024;2023-02-11T15:25:49;106.90;;;37.20;;
13404;SDS011;6773;51.192;7.024;2023-02-11T15:28:29;109.07;;;36.17;;
13404;SDS011;6773;51.192;7.024;2023-02-11T15:31:03;119.93;;;37.13;;
13404;SDS011;6773;51.192;7.024;2023-02-11T15:33:37;109.20;;;37.33;;
13404;SDS011;6773;51.192;7.024;2023-02-11T15:36:03;107.03;;;37.40;;
13404;SDS011;6773;51.192;7.024;2023-02-11T15:38:29;115.30;;;37.70;;
13404;SDS011;6773;51.192;7.024;2023-02-11T15:40:56;116.93;;;41.00;;
13404;SDS011;6773;51.192;7.024;2023-02-11T15:43:25;118.80;;;38.70;;
13404;SDS011;6773;51.192;7.024;2023-02-11T15:46:17;116.23;;;38.37;;
13404;SDS011;6773;51.192;7.024;2023-02-11T15:48:55;112.27;;;37.83;;
13404;SDS011;6773;51.192;7.024;2023-02-11T15:51:30;115.97;;;38.67;;
13404;SDS011;6773;51.192;7.024;2023-02-11T15:54:01;110.90;;;37.80;;
13404;SDS011;6773;51.192;7.024;2023-02-11T15:56:34;107.10;;;37.73;;
13404;SDS011;6773;51.192;7.024;2023-02-11T15:59:10;106.77;;;37.17;;
13404;SDS011;6773;51.192;7.024;2023-02-11T16:01:43;117.80;;;37.60;;
13404;SDS011;6773;51.192;7.024;2023-02-11T16:04:27;107.43;;;37.70;;
13404;SDS011;6773;51.192;7.024;2023-02-11T16:06:53;125.47;;;36.17;;
13404;SDS011;6773;51.192;7.024;2023-02-11T16:09:30;116.90;;;38.13;;
13404;SDS011;6773;51.192;7.024;2023-02-11T16:12:01;120.40;;;35.50;;
13404;SDS011;6773;51.192;7.024;2023-02-11T16:14:47;110.30;;;35.13;;
13404;SDS011;6773;51.192;7.024;2023-02-11T16:17:23;115.73;;;36.77;;
13404;SDS011;6773;51.192;7.024;2023-02-11T16:19:51;113.73;;;38.50;;
13404;SDS011;6773;51.192;7.024;2023-02-11T16:22:27;110.37;;;36.73;;
13404;SDS011;6773;51.192;7.024;2023-02-11T16:24:59;110.27;;;37.17;;
13404;SDS011;6773;51.192;7.024;2023-02-11T16:27:28;106.60;;;36.83;;
13404;SDS011;6773;51.192;7.024;2023-02-11T16:30:04;108.27;;;35.67;;
13404;SDS011;6773;51.192;7.024;2023-02-11T16:32:41;105.97;;;35.83;;
13404;SDS011;6773;51.192;7.024;2023-02-11T16:35:06;110.47;;;35.97;;
13404;SDS011;6773;51.192;7.024;2023-02-11T16:37:36;101.13;;;35.43;;
13404;SDS011;6773;51.192;7.024;2023-02-11T16:40:02;123.43;;;36.83;;
13404;SDS011;6773;51.192;7.024;2023-02-11T16:42:27;98.17;;;35.03;;
13404;SDS011;6773;51.192;7.024;2023-02-11T16:44:53;111.60;;;38.57;;
13404;SDS011;6773;51.192;7.024;2023-02-11T16:47:22;103.13;;;36.23;;
13404;SDS011;6773;51.192;7.024;2023-02-11T16:49:50;100.30;;;35.77;;
13404;SDS011;6773;51.192;7.024;2023-02-11T16:52:16;95.00;;;37.03;;
13404;SDS011;6773;51.192;7.024;2023-02-11T16:54:43;103.00;;;36.27;;
13404;SDS011;6773;51.192;7.024;2023-02-11T16:57:18;104.93;;;37.20;;
13404;SDS011;6773;51.192;7.024;2023-02-11T16:59:46;107.73;;;36.20;;
13404;SDS011;6773;51.192;7.024;2023-02-11T17:02:14;112.50;;;36.27;;
13404;SDS011;6773;51.192;7.024;2023-02-11T17:04:45;103.90;;;38.23;;
13404;SDS011;6773;51.192;7.024;2023-02-11T17:07:11;94.77;;;36.83;;
13404;SDS011;6773;51.192;7.024;2023-02-11T17:09:37;113.60;;;41.50;;
13404;SDS011;6773;51.192;7.024;2023-02-11T17:12:03;102.53;;;37.47;;
13404;SDS011;6773;51.192;7.024;2023-02-11T17:14:29;124.93;;;47.87;;
13404;SDS011;6773;51.192;7.024;2023-02-11T17:16:55;121.33;;;43.07;;
13404;SDS011;6773;51.192;7.024;2023-02-11T17:19:21;117.80;;;40.87;;
13404;SDS011;6773;51.192;7.024;2023-02-11T17:21:47;152.27;;;59.70;;
13404;SDS011;6773;51.192;7.024;2023-02-11T17:24:14;126.37;;;45.70;;